sensor_id;sensor_type;location;lat;lon;timestamp;pressure;altitude;pressure_sealevel;temperature;humidity
77106;BME280;66057;54.718;18.426;2023-08-12T00:01:05;47296.94;;;-143.26;78.54
77106;BME280;66057;54.718;18.426;2023-08-12T00:03:33;47287.19;;;-143.26;79.03
77106;BME280;66057;54.718;18.426;2023-08-12T00:05:58;47287.19;;;-143.26;79.04
77106;BME280;66057;54.718;18.426;2023-08-12T00:08:26;47289.13;;;-143.26;78.90
77106;BME280;66057;54.718;18.426;2023-08-12T00:10:51;47306.69;;;-143.26;78.65
77106;BME280;66057;54.718;18.426;2023-08-12T00:13:17;47273.53;;;-143.26;78.63
77106;BME280;66057;54.718;18.426;2023-08-12T00:15:44;47269.63;;;-143.26;78.80
77106;BME280;66057;54.718;18.426;2023-08-12T00:18:10;47330.09;;;-143.26;78.58
77106;BME280;66057;54.718;18.426;2023-08-12T00:20:36;47304.75;;;-143.26;78.67
77106;BME280;66057;54.718;18.426;2023-08-12T00:23:04;47322.31;;;-143.26;78.77
77106;BME280;66057;54.718;18.426;2023-08-12T00:25:30;47295.00;;;-143.26;78.67
77106;BME280;66057;54.718;18.426;2023-08-12T00:27:55;47257.94;;;-143.26;78.90
77106;BME280;66057;54.718;18.426;2023-08-12T00:30:21;47306.69;;;-143.26;78.95
77106;BME280;66057;54.718;18.426;2023-08-12T00:32:47;47293.03;;;-143.26;78.61
77106;BME280;66057;54.718;18.426;2023-08-12T00:35:12;47295.00;;;-143.26;78.80
77106;BME280;66057;54.718;18.426;2023-08-12T00:37:38;47263.78;;;-143.26;78.79
77106;BME280;66057;54.718;18.426;2023-08-12T00:40:05;47322.31;;;-143.26;78.56
77106;BME280;66057;54.718;18.426;2023-08-12T00:42:32;47279.38;;;-143.26;78.63
77106;BME280;66057;54.718;18.426;2023-08-12T00:44:58;47263.78;;;-143.26;78.32
77106;BME280;66057;54.718;18.426;2023-08-12T00:47:23;47287.19;;;-143.26;78.51
77106;BME280;66057;54.718;18.426;2023-08-12T00:49:50;47283.28;;;-143.26;78.44
77106;BME280;66057;54.718;18.426;2023-08-12T00:52:17;47302.78;;;-143.26;78.62
77106;BME280;66057;54.718;18.426;2023-08-12T00:54:43;47289.13;;;-143.26;78.28
77106;BME280;66057;54.718;18.426;2023-08-12T00:57:09;47273.53;;;-143.26;78.56
77106;BME280;66057;54.718;18.426;2023-08-12T00:59:35;47273.53;;;-143.26;78.56
77106;BME280;66057;54.718;18.426;2023-08-12T01:02:05;47295.00;;;-143.26;78.53
77106;BME280;66057;54.718;18.426;2023-08-12T01:04:30;47281.34;;;-143.26;78.56
77106;BME280;66057;54.718;18.426;2023-08-12T01:06:56;47279.38;;;-143.26;78.41
77106;BME280;66057;54.718;18.426;2023-08-12T01:09:22;47308.66;;;-143.26;78.20
77106;BME280;66057;54.718;18.426;2023-08-12T01:11:55;47277.44;;;-143.26;77.86
77106;BME280;66057;54.718;18.426;2023-08-12T01:14:27;47312.56;;;-143.26;77.83
77106;BME280;66057;54.718;18.426;2023-08-12T01:16:59;47265.72;;;-143.26;78.28
77106;BME280;66057;54.718;18.426;2023-08-12T01:19:36;47298.91;;;-143.26;77.85
77106;BME280;66057;54.718;18.426;2023-08-12T01:22:04;47285.22;;;-143.26;78.02
77106;BME280;66057;54.718;18.426;2023-08-12T01:24:37;47304.75;;;-143.26;78.05
77106;BME280;66057;54.718;18.426;2023-08-12T01:27:05;47310.59;;;-143.26;78.09
77106;BME280;66057;54.718;18.426;2023-08-12T01:29:32;47240.38;;;-143.26;78.57
77106;BME280;66057;54.718;18.426;2023-08-12T01:32:11;47295.00;;;-143.26;78.54
77106;BME280;66057;54.718;18.426;2023-08-12T01:37:26;47287.19;;;-143.26;79.54
77106;BME280;66057;54.718;18.426;2023-08-12T01:39:54;47291.09;;;-143.26;79.53
77106;BME280;66057;54.718;18.426;2023-08-12T01:42:21;47318.41;;;-143.26;79.44
77106;BME280;66057;54.718;18.426;2023-08-12T01:44:47;47273.53;;;-143.26;80.23
77106;BME280;66057;54.718;18.426;2023-08-12T01:47:13;47298.91;;;-143.26;80.39
77106;BME280;66057;54.718;18.426;2023-08-12T01:49:39;47289.13;;;-143.26;80.66
77106;BME280;66057;54.718;18.426;2023-08-12T01:52:05;47302.78;;;-143.26;80.24
77106;BME280;66057;54.718;18.426;2023-08-12T01:54:30;47306.69;;;-143.26;79.97
77106;BME280;66057;54.718;18.426;2023-08-12T01:57:01;47326.19;;;-143.26;80.53
77106;BME280;66057;54.718;18.426;2023-08-12T01:59:27;47281.34;;;-143.26;80.09
77106;BME280;66057;54.718;18.426;2023-08-12T02:01:53;47275.47;;;-143.26;80.23
77106;BME280;66057;54.718;18.426;2023-08-12T02:04:18;47293.03;;;-143.26;80.67
77106;BME280;66057;54.718;18.426;2023-08-12T02:06:44;47312.56;;;-143.26;80.40
77106;BME280;66057;54.718;18.426;2023-08-12T02:09:09;47310.59;;;-143.26;80.67
77106;BME280;66057;54.718;18.426;2023-08-12T02:11:35;47318.41;;;-143.26;80.62
77106;BME280;66057;54.718;18.426;2023-08-12T02:14:01;47304.75;;;-143.26;80.58
77106;BME280;66057;54.718;18.426;2023-08-12T02:16:27;47291.09;;;-143.26;80.74
77106;BME280;66057;54.718;18.426;2023-08-12T02:18:52;47267.69;;;-143.26;80.55
77106;BME280;66057;54.718;18.426;2023-08-12T02:21:18;47302.78;;;-143.26;80.87
77106;BME280;66057;54.718;18.426;2023-08-12T02:23:43;47302.78;;;-143.26;80.68
77106;BME280;66057;54.718;18.426;2023-08-12T02:26:09;47281.34;;;-143.26;80.59
77106;BME280;66057;54.718;18.426;2023-08-12T02:28:35;47273.53;;;-143.26;80.79
77106;BME280;66057;54.718;18.426;2023-08-12T02:31:01;47295.00;;;-143.26;80.91
77106;BME280;66057;54.718;18.426;2023-08-12T02:33:27;47302.78;;;-143.26;81.10
77106;BME280;66057;54.718;18.426;2023-08-12T02:35:53;47334.00;;;-143.26;80.87
77106;BME280;66057;54.718;18.426;2023-08-12T02:38:20;47265.72;;;-143.26;80.83
77106;BME280;66057;54.718;18.426;2023-08-12T02:40:50;47304.75;;;-143.26;80.74
77106;BME280;66057;54.718;18.426;2023-08-12T02:43:16;47312.56;;;-143.26;81.35
77106;BME280;66057;54.718;18.426;2023-08-12T02:45:43;47314.50;;;-143.26;81.76
77106;BME280;66057;54.718;18.426;2023-08-12T02:48:11;47332.06;;;-143.26;81.99
77106;BME280;66057;54.718;18.426;2023-08-12T02:50:38;47302.78;;;-143.26;82.31
77106;BME280;66057;54.718;18.426;2023-08-12T02:53:05;47291.09;;;-143.26;82.47
77106;BME280;66057;54.718;18.426;2023-08-12T02:55:31;47322.31;;;-143.26;83.06
77106;BME280;66057;54.718;18.426;2023-08-12T02:57:58;47295.00;;;-143.26;82.66
77106;BME280;66057;54.718;18.426;2023-08-12T03:00:24;47291.09;;;-143.26;83.60
77106;BME280;66057;54.718;18.426;2023-08-12T03:02:50;47287.19;;;-143.26;82.99
77106;BME280;66057;54.718;18.426;2023-08-12T03:05:15;47287.19;;;-143.26;83.45
77106;BME280;66057;54.718;18.426;2023-08-12T03:07:41;47291.09;;;-143.26;83.70
77106;BME280;66057;54.718;18.426;2023-08-12T03:10:07;47330.09;;;-143.26;83.62
77106;BME280;66057;54.718;18.426;2023-08-12T03:12:33;47295.00;;;-143.26;84.06
77106;BME280;66057;54.718;18.426;2023-08-12T03:15:01;47310.59;;;-143.26;84.12
77106;BME280;66057;54.718;18.426;2023-08-12T03:17:26;47283.28;;;-143.26;83.61
77106;BME280;66057;54.718;18.426;2023-08-12T03:19:52;47302.78;;;-143.26;83.63
77106;BME280;66057;54.718;18.426;2023-08-12T03:22:20;47269.63;;;-143.26;82.96
77106;BME280;66057;54.718;18.426;2023-08-12T03:24:46;47304.75;;;-143.26;83.37
77106;BME280;66057;54.718;18.426;2023-08-12T03:27:11;47275.47;;;-143.26;83.39
77106;BME280;66057;54.718;18.426;2023-08-12T03:29:37;47310.59;;;-143.26;83.41
77106;BME280;66057;54.718;18.426;2023-08-12T03:32:03;47326.19;;;-143.26;83.53
77106;BME280;66057;54.718;18.426;2023-08-12T03:34:29;47345.72;;;-143.26;83.89
77106;BME280;66057;54.718;18.426;2023-08-12T03:36:57;47316.44;;;-143.26;83.82
77106;BME280;66057;54.718;18.426;2023-08-12T03:39:23;47322.31;;;-143.26;84.11
77106;BME280;66057;54.718;18.426;2023-08-12T03:41:48;47310.59;;;-143.26;84.24
77106;BME280;66057;54.718;18.426;2023-08-12T03:44:16;47341.81;;;-143.26;84.02
77106;BME280;66057;54.718;18.426;2023-08-12T03:46:41;47339.84;;;-143.26;84.69
77106;BME280;66057;54.718;18.426;2023-08-12T03:49:07;47291.09;;;-143.26;84.57
77106;BME280;66057;54.718;18.426;2023-08-12T03:51:33;47326.19;;;-143.26;84.38
77106;BME280;66057;54.718;18.426;2023-08-12T03:53:59;47306.69;;;-143.26;85.11
77106;BME280;66057;54.718;18.426;2023-08-12T03:56:25;47337.91;;;-143.26;84.90
77106;BME280;66057;54.718;18.426;2023-08-12T03:58:51;47328.16;;;-143.26;85.04
77106;BME280;66057;54.718;18.426;2023-08-12T04:01:17;47316.44;;;-143.26;85.40
77106;BME280;66057;54.718;18.426;2023-08-12T04:03:43;47314.50;;;-143.26;85.42
77106;BME280;66057;54.718;18.426;2023-08-12T04:06:09;47326.19;;;-143.26;85.74
77106;BME280;66057;54.718;18.426;2023-08-12T04:08:35;47322.31;;;-143.26;85.53
77106;BME280;66057;54.718;18.426;2023-08-12T04:11:00;47310.59;;;-143.26;85.55
77106;BME280;66057;54.718;18.426;2023-08-12T04:13:26;47310.59;;;-143.26;85.83
77106;BME280;66057;54.718;18.426;2023-08-12T04:15:52;47314.50;;;-143.26;85.89
77106;BME280;66057;54.718;18.426;2023-08-12T04:18:21;47318.41;;;-143.26;85.95
77106;BME280;66057;54.718;18.426;2023-08-12T04:20:49;47334.00;;;-143.26;85.85
77106;BME280;66057;54.718;18.426;2023-08-12T04:23:16;47289.13;;;-143.26;85.48
77106;BME280;66057;54.718;18.426;2023-08-12T04:25:46;47359.38;;;-143.26;85.72
77106;BME280;66057;54.718;18.426;2023-08-12T04:28:13;47322.31;;;-143.26;85.23
77106;BME280;66057;54.718;18.426;2023-08-12T04:30:47;47265.72;;;-143.26;84.91
77106;BME280;66057;54.718;18.426;2023-08-12T04:33:14;47316.44;;;-143.26;85.27
77106;BME280;66057;54.718;18.426;2023-08-12T04:35:40;47289.13;;;-143.26;85.16
77106;BME280;66057;54.718;18.426;2023-08-12T04:38:06;47310.59;;;-143.26;85.14
77106;BME280;66057;54.718;18.426;2023-08-12T04:40:32;47326.19;;;-143.26;84.95
77106;BME280;66057;54.718;18.426;2023-08-12T04:42:59;47322.31;;;-143.26;85.37
77106;BME280;66057;54.718;18.426;2023-08-12T04:45:26;47312.56;;;-143.26;84.96
77106;BME280;66057;54.718;18.426;2023-08-12T04:47:51;47283.28;;;-143.26;84.44
77106;BME280;66057;54.718;18.426;2023-08-12T04:50:17;47310.59;;;-143.26;85.16
77106;BME280;66057;54.718;18.426;2023-08-12T04:52:43;47285.22;;;-143.26;84.99
77106;BME280;66057;54.718;18.426;2023-08-12T04:55:09;47287.19;;;-143.26;85.25
77106;BME280;66057;54.718;18.426;2023-08-12T04:57:36;47318.41;;;-143.26;84.51
77106;BME280;66057;54.718;18.426;2023-08-12T05:00:02;47310.59;;;-143.26;84.67
77106;BME280;66057;54.718;18.426;2023-08-12T05:02:28;47298.91;;;-143.26;84.74
77106;BME280;66057;54.718;18.426;2023-08-12T05:04:54;47308.66;;;-143.26;84.95
77106;BME280;66057;54.718;18.426;2023-08-12T05:07:20;47314.50;;;-143.26;84.88
77106;BME280;66057;54.718;18.426;2023-08-12T05:09:45;47326.19;;;-143.26;84.56
77106;BME280;66057;54.718;18.426;2023-08-12T05:12:11;47316.44;;;-143.26;84.03
77106;BME280;66057;54.718;18.426;2023-08-12T05:14:38;47314.50;;;-143.26;83.86
77106;BME280;66057;54.718;18.426;2023-08-12T05:17:05;47314.50;;;-143.26;82.95
77106;BME280;66057;54.718;18.426;2023-08-12T05:19:30;47320.34;;;-143.26;82.40
77106;BME280;66057;54.718;18.426;2023-08-12T05:21:56;47298.91;;;-143.26;81.15
77106;BME280;66057;54.718;18.426;2023-08-12T05:24:22;47298.91;;;-143.26;79.66
77106;BME280;66057;54.718;18.426;2023-08-12T05:26:48;47298.91;;;-143.26;78.16
77106;BME280;66057;54.718;18.426;2023-08-12T05:29:13;47295.00;;;-143.26;78.02
77106;BME280;66057;54.718;18.426;2023-08-12T05:31:39;47293.03;;;-143.26;76.39
77106;BME280;66057;54.718;18.426;2023-08-12T05:34:04;47300.84;;;-143.26;75.10
77106;BME280;66057;54.718;18.426;2023-08-12T05:36:30;47302.78;;;-143.26;74.33
77106;BME280;66057;54.718;18.426;2023-08-12T05:38:56;47310.59;;;-143.26;73.81
77106;BME280;66057;54.718;18.426;2023-08-12T05:41:21;47279.38;;;-143.26;73.93
77106;BME280;66057;54.718;18.426;2023-08-12T05:43:48;47291.09;;;-143.26;72.06
77106;BME280;66057;54.718;18.426;2023-08-12T05:46:14;47308.66;;;-143.26;71.15
77106;BME280;66057;54.718;18.426;2023-08-12T05:48:40;47304.75;;;-143.26;70.57
77106;BME280;66057;54.718;18.426;2023-08-12T05:51:06;47275.47;;;-143.26;70.96
77106;BME280;66057;54.718;18.426;2023-08-12T05:53:31;47300.84;;;-143.26;70.11
77106;BME280;66057;54.718;18.426;2023-08-12T05:55:58;47279.38;;;-143.26;69.10
77106;BME280;66057;54.718;18.426;2023-08-12T05:58:24;47298.91;;;-143.26;67.96
77106;BME280;66057;54.718;18.426;2023-08-12T06:00:50;47271.59;;;-143.26;67.55
77106;BME280;66057;54.718;18.426;2023-08-12T06:03:16;47265.72;;;-143.26;66.71
77106;BME280;66057;54.718;18.426;2023-08-12T06:05:44;47252.06;;;-143.26;65.83
77106;BME280;66057;54.718;18.426;2023-08-12T06:08:09;47296.94;;;-143.26;65.47
77106;BME280;66057;54.718;18.426;2023-08-12T06:10:35;47267.69;;;-143.26;64.72
77106;BME280;66057;54.718;18.426;2023-08-12T06:13:00;47291.09;;;-143.26;63.95
77106;BME280;66057;54.718;18.426;2023-08-12T06:15:26;47248.16;;;-143.26;63.42
77106;BME280;66057;54.718;18.426;2023-08-12T06:17:52;47238.41;;;-143.26;63.77
77106;BME280;66057;54.718;18.426;2023-08-12T06:20:18;47273.53;;;-143.26;63.16
77106;BME280;66057;54.718;18.426;2023-08-12T06:22:44;47273.53;;;-143.26;62.26
77106;BME280;66057;54.718;18.426;2023-08-12T06:25:10;47267.69;;;-143.26;61.62
77106;BME280;66057;54.718;18.426;2023-08-12T06:27:35;47250.13;;;-143.26;61.31
77106;BME280;66057;54.718;18.426;2023-08-12T06:30:01;47277.44;;;-143.26;60.53
77106;BME280;66057;54.718;18.426;2023-08-12T06:32:27;47213.06;;;-143.26;59.17
77106;BME280;66057;54.718;18.426;2023-08-12T06:34:53;47277.44;;;-143.26;59.33
77106;BME280;66057;54.718;18.426;2023-08-12T06:37:18;47220.84;;;-143.26;59.23
77106;BME280;66057;54.718;18.426;2023-08-12T06:39:44;47213.06;;;-143.26;59.41
77106;BME280;66057;54.718;18.426;2023-08-12T06:42:09;47238.41;;;-143.26;58.81
77106;BME280;66057;54.718;18.426;2023-08-12T06:44:35;47228.66;;;-143.26;58.53
77106;BME280;66057;54.718;18.426;2023-08-12T06:47:01;47234.50;;;-143.26;58.00
77106;BME280;66057;54.718;18.426;2023-08-12T06:49:27;47228.66;;;-143.26;57.54
77106;BME280;66057;54.718;18.426;2023-08-12T06:51:52;47207.19;;;-143.26;57.60
77106;BME280;66057;54.718;18.426;2023-08-12T06:54:18;47252.06;;;-143.26;57.72
77106;BME280;66057;54.718;18.426;2023-08-12T06:56:44;47216.97;;;-143.26;57.68
77106;BME280;66057;54.718;18.426;2023-08-12T06:59:10;47228.66;;;-143.26;57.57
77106;BME280;66057;54.718;18.426;2023-08-12T07:01:36;47240.38;;;-143.26;57.75
77106;BME280;66057;54.718;18.426;2023-08-12T07:04:02;47224.75;;;-143.26;56.51
77106;BME280;66057;54.718;18.426;2023-08-12T07:06:28;47232.56;;;-143.26;57.25
77106;BME280;66057;54.718;18.426;2023-08-12T07:08:53;47228.66;;;-143.26;55.80
77106;BME280;66057;54.718;18.426;2023-08-12T07:11:19;47246.22;;;-143.26;56.79
77106;BME280;66057;54.718;18.426;2023-08-12T07:13:45;47203.31;;;-143.26;54.98
77106;BME280;66057;54.718;18.426;2023-08-12T07:16:11;47226.72;;;-143.26;54.33
77106;BME280;66057;54.718;18.426;2023-08-12T07:18:37;47201.34;;;-143.26;54.13
77106;BME280;66057;54.718;18.426;2023-08-12T07:21:03;47209.16;;;-143.26;53.48
77106;BME280;66057;54.718;18.426;2023-08-12T07:23:29;47193.53;;;-143.26;53.12
77106;BME280;66057;54.718;18.426;2023-08-12T07:25:55;47207.19;;;-143.26;52.55
77106;BME280;66057;54.718;18.426;2023-08-12T07:28:24;47232.56;;;-143.26;53.11
77106;BME280;66057;54.718;18.426;2023-08-12T07:30:53;47189.66;;;-143.26;54.04
77106;BME280;66057;54.718;18.426;2023-08-12T07:33:21;47267.69;;;-143.26;52.85
77106;BME280;66057;54.718;18.426;2023-08-12T07:35:47;47222.81;;;-143.26;53.38
77106;BME280;66057;54.718;18.426;2023-08-12T07:38:15;47199.41;;;-143.26;54.04
77106;BME280;66057;54.718;18.426;2023-08-12T07:40:41;47193.53;;;-143.26;53.73
77106;BME280;66057;54.718;18.426;2023-08-12T07:43:07;47236.47;;;-143.26;54.46
77106;BME280;66057;54.718;18.426;2023-08-12T07:45:33;47220.84;;;-143.26;52.99
77106;BME280;66057;54.718;18.426;2023-08-12T07:47:58;47203.31;;;-143.26;53.59
77106;BME280;66057;54.718;18.426;2023-08-12T07:50:24;47246.22;;;-143.26;53.48
77106;BME280;66057;54.718;18.426;2023-08-12T07:52:50;47193.53;;;-143.26;53.25
77106;BME280;66057;54.718;18.426;2023-08-12T07:55:17;47197.44;;;-143.26;53.69
77106;BME280;66057;54.718;18.426;2023-08-12T07:57:44;47199.41;;;-143.26;52.83
77106;BME280;66057;54.718;18.426;2023-08-12T08:00:11;47205.25;;;-143.26;53.78
77106;BME280;66057;54.718;18.426;2023-08-12T08:02:38;47197.44;;;-143.26;52.43
77106;BME280;66057;54.718;18.426;2023-08-12T08:05:04;47170.13;;;-143.26;51.60
77106;BME280;66057;54.718;18.426;2023-08-12T08:07:30;47181.84;;;-143.26;51.25
77106;BME280;66057;54.718;18.426;2023-08-12T08:09:56;47174.03;;;-143.26;50.67
77106;BME280;66057;54.718;18.426;2023-08-12T08:12:22;47174.03;;;-143.26;51.39
77106;BME280;66057;54.718;18.426;2023-08-12T08:14:48;47152.59;;;-143.26;49.98
77106;BME280;66057;54.718;18.426;2023-08-12T08:17:14;47181.84;;;-143.26;50.17
77106;BME280;66057;54.718;18.426;2023-08-12T08:19:39;47176.00;;;-143.26;49.55
77106;BME280;66057;54.718;18.426;2023-08-12T08:22:05;47195.50;;;-143.26;48.85
77106;BME280;66057;54.718;18.426;2023-08-12T08:24:31;47181.84;;;-143.26;49.32
77106;BME280;66057;54.718;18.426;2023-08-12T08:26:57;47164.28;;;-143.26;49.47
77106;BME280;66057;54.718;18.426;2023-08-12T08:29:23;47181.84;;;-143.26;49.46
77106;BME280;66057;54.718;18.426;2023-08-12T08:31:49;47174.03;;;-143.26;50.29
77106;BME280;66057;54.718;18.426;2023-08-12T08:34:14;47160.38;;;-143.26;49.50
77106;BME280;66057;54.718;18.426;2023-08-12T08:36:40;47193.53;;;-143.26;50.28
77106;BME280;66057;54.718;18.426;2023-08-12T08:39:06;47156.47;;;-143.26;51.39
77106;BME280;66057;54.718;18.426;2023-08-12T08:41:32;47162.34;;;-143.26;55.86
77106;BME280;66057;54.718;18.426;2023-08-12T08:44:05;47185.75;;;-143.26;55.57
77106;BME280;66057;54.718;18.426;2023-08-12T08:46:32;47187.69;;;-143.26;56.68
77106;BME280;66057;54.718;18.426;2023-08-12T08:48:59;47156.47;;;-143.26;58.77
77106;BME280;66057;54.718;18.426;2023-08-12T08:51:29;47187.69;;;-143.26;58.22
77106;BME280;66057;54.718;18.426;2023-08-12T08:53:56;47187.69;;;-143.26;58.25
77106;BME280;66057;54.718;18.426;2023-08-12T08:56:23;47183.78;;;-143.26;59.51
77106;BME280;66057;54.718;18.426;2023-08-12T08:58:49;47156.47;;;-143.26;57.73
77106;BME280;66057;54.718;18.426;2023-08-12T09:01:18;47187.69;;;-143.26;58.35
77106;BME280;66057;54.718;18.426;2023-08-12T09:03:45;47185.75;;;-143.26;57.71
77106;BME280;66057;54.718;18.426;2023-08-12T09:06:12;47170.13;;;-143.26;58.63
77106;BME280;66057;54.718;18.426;2023-08-12T09:08:41;47166.25;;;-143.26;56.31
77106;BME280;66057;54.718;18.426;2023-08-12T09:11:12;47215.00;;;-143.26;59.15
77106;BME280;66057;54.718;18.426;2023-08-12T09:13:38;47209.16;;;-143.26;59.26
77106;BME280;66057;54.718;18.426;2023-08-12T09:16:04;47218.91;;;-143.26;59.26
77106;BME280;66057;54.718;18.426;2023-08-12T09:18:30;47187.69;;;-143.26;60.34
77106;BME280;66057;54.718;18.426;2023-08-12T09:20:56;47185.75;;;-143.26;61.28
77106;BME280;66057;54.718;18.426;2023-08-12T09:23:22;47224.75;;;-143.26;62.64
77106;BME280;66057;54.718;18.426;2023-08-12T09:25:48;47216.97;;;-143.26;61.50
77106;BME280;66057;54.718;18.426;2023-08-12T09:28:14;47181.84;;;-143.26;63.78
77106;BME280;66057;54.718;18.426;2023-08-12T09:30:40;47213.06;;;-143.26;64.37
77106;BME280;66057;54.718;18.426;2023-08-12T09:33:07;47246.22;;;-143.26;65.15
77106;BME280;66057;54.718;18.426;2023-08-12T09:35:38;47205.25;;;-143.26;66.30
77106;BME280;66057;54.718;18.426;2023-08-12T09:38:06;47189.66;;;-143.26;68.05
77106;BME280;66057;54.718;18.426;2023-08-12T09:40:34;47230.63;;;-143.26;67.51
77106;BME280;66057;54.718;18.426;2023-08-12T09:43:00;47228.66;;;-143.26;65.83
77106;BME280;66057;54.718;18.426;2023-08-12T09:45:26;47226.72;;;-143.26;64.15
77106;BME280;66057;54.718;18.426;2023-08-12T09:47:54;47222.81;;;-143.26;64.02
77106;BME280;66057;54.718;18.426;2023-08-12T09:50:24;47185.75;;;-143.26;63.40
77106;BME280;66057;54.718;18.426;2023-08-12T09:52:51;47226.72;;;-143.26;63.98
77106;BME280;66057;54.718;18.426;2023-08-12T09:55:19;47209.16;;;-143.26;63.94
77106;BME280;66057;54.718;18.426;2023-08-12T09:57:48;47195.50;;;-143.26;65.14
77106;BME280;66057;54.718;18.426;2023-08-12T10:00:16;47185.75;;;-143.26;65.24
77106;BME280;66057;54.718;18.426;2023-08-12T10:02:44;47230.63;;;-143.26;65.04
77106;BME280;66057;54.718;18.426;2023-08-12T10:05:14;47183.78;;;-143.26;63.72
77106;BME280;66057;54.718;18.426;2023-08-12T10:07:41;47197.44;;;-143.26;65.34
77106;BME280;66057;54.718;18.426;2023-08-12T10:10:08;47224.75;;;-143.26;66.79
77106;BME280;66057;54.718;18.426;2023-08-12T10:12:34;47230.63;;;-143.26;65.34
77106;BME280;66057;54.718;18.426;2023-08-12T10:15:01;47158.44;;;-143.26;67.29
77106;BME280;66057;54.718;18.426;2023-08-12T10:17:27;47209.16;;;-143.26;66.79
77106;BME280;66057;54.718;18.426;2023-08-12T10:19:55;47164.28;;;-143.26;68.42
77106;BME280;66057;54.718;18.426;2023-08-12T10:22:21;47201.34;;;-143.26;68.06
77106;BME280;66057;54.718;18.426;2023-08-12T10:24:49;47228.66;;;-143.26;68.53
77106;BME280;66057;54.718;18.426;2023-08-12T10:27:15;47218.91;;;-143.26;69.29
77106;BME280;66057;54.718;18.426;2023-08-12T10:29:42;47177.94;;;-143.26;69.67
77106;BME280;66057;54.718;18.426;2023-08-12T10:32:08;47211.09;;;-143.26;69.24
77106;BME280;66057;54.718;18.426;2023-08-12T10:34:35;47201.34;;;-143.26;70.07
77106;BME280;66057;54.718;18.426;2023-08-12T10:37:02;47189.66;;;-143.26;68.87
77106;BME280;66057;54.718;18.426;2023-08-12T10:39:28;47228.66;;;-143.26;63.73
77106;BME280;66057;54.718;18.426;2023-08-12T10:41:56;47199.41;;;-143.26;62.64
77106;BME280;66057;54.718;18.426;2023-08-12T10:44:27;47185.75;;;-143.26;64.87
77106;BME280;66057;54.718;18.426;2023-08-12T10:46:53;47205.25;;;-143.26;65.50
77106;BME280;66057;54.718;18.426;2023-08-12T10:49:21;47201.34;;;-143.26;67.46
77106;BME280;66057;54.718;18.426;2023-08-12T10:51:53;47189.66;;;-143.26;67.42
77106;BME280;66057;54.718;18.426;2023-08-12T10:54:25;47185.75;;;-143.26;68.90
77106;BME280;66057;54.718;18.426;2023-08-12T11:02:22;47203.31;;;-143.26;64.51
77106;BME280;66057;54.718;18.426;2023-08-12T11:07:32;47181.84;;;-143.26;65.12
77106;BME280;66057;54.718;18.426;2023-08-12T11:10:21;47177.94;;;-143.26;65.30
77106;BME280;66057;54.718;18.426;2023-08-12T11:12:53;47209.16;;;-143.26;65.18
77106;BME280;66057;54.718;18.426;2023-08-12T11:15:36;47209.16;;;-143.26;64.33
77106;BME280;66057;54.718;18.426;2023-08-12T11:18:04;47197.44;;;-143.26;63.44
77106;BME280;66057;54.718;18.426;2023-08-12T11:20:30;47185.75;;;-143.26;63.55
77106;BME280;66057;54.718;18.426;2023-08-12T11:22:56;47205.25;;;-143.26;64.89
77106;BME280;66057;54.718;18.426;2023-08-12T11:25:24;47230.63;;;-143.26;65.93
77106;BME280;66057;54.718;18.426;2023-08-12T11:27:51;47183.78;;;-143.26;67.11
77106;BME280;66057;54.718;18.426;2023-08-12T11:30:18;47174.03;;;-143.26;65.64
77106;BME280;66057;54.718;18.426;2023-08-12T11:32:46;47174.03;;;-143.26;65.29
77106;BME280;66057;54.718;18.426;2023-08-12T11:35:14;47195.50;;;-143.26;65.32
77106;BME280;66057;54.718;18.426;2023-08-12T11:37:42;47218.91;;;-143.26;65.91
77106;BME280;66057;54.718;18.426;2023-08-12T11:40:09;47197.44;;;-143.26;66.05
77106;BME280;66057;54.718;18.426;2023-08-12T11:42:37;47154.53;;;-143.26;64.55
77106;BME280;66057;54.718;18.426;2023-08-12T11:45:04;47207.19;;;-143.26;63.08
77106;BME280;66057;54.718;18.426;2023-08-12T11:47:29;47189.66;;;-143.26;61.46
77106;BME280;66057;54.718;18.426;2023-08-12T11:49:55;47181.84;;;-143.26;61.59
77106;BME280;66057;54.718;18.426;2023-08-12T11:52:21;47181.84;;;-143.26;62.92
77106;BME280;66057;54.718;18.426;2023-08-12T11:54:49;47174.03;;;-143.26;59.93
77106;BME280;66057;54.718;18.426;2023-08-12T11:57:16;47166.25;;;-143.26;56.85
77106;BME280;66057;54.718;18.426;2023-08-12T11:59:42;47160.38;;;-143.26;56.82
77106;BME280;66057;54.718;18.426;2023-08-12T12:02:10;47138.94;;;-143.26;55.88
77106;BME280;66057;54.718;18.426;2023-08-12T12:04:36;47123.31;;;-143.26;54.97
77106;BME280;66057;54.718;18.426;2023-08-12T12:07:01;47127.22;;;-143.26;54.15
77106;BME280;66057;54.718;18.426;2023-08-12T12:09:32;47121.38;;;-143.26;54.30
77106;BME280;66057;54.718;18.426;2023-08-12T12:11:58;47119.41;;;-143.26;56.34
77106;BME280;66057;54.718;18.426;2023-08-12T12:14:24;47099.91;;;-143.26;53.49
77106;BME280;66057;54.718;18.426;2023-08-12T12:16:51;47072.59;;;-143.26;50.69
77106;BME280;66057;54.718;18.426;2023-08-12T12:19:23;47099.91;;;-143.26;51.69
77106;BME280;66057;54.718;18.426;2023-08-12T12:21:50;47090.16;;;-143.26;50.24
77106;BME280;66057;54.718;18.426;2023-08-12T12:24:17;47064.78;;;-143.26;48.17
77106;BME280;66057;54.718;18.426;2023-08-12T12:26:44;47045.28;;;-143.26;46.29
77106;BME280;66057;54.718;18.426;2023-08-12T12:29:10;47047.25;;;-143.26;45.89
77106;BME280;66057;54.718;18.426;2023-08-12T12:31:40;47035.53;;;-143.26;46.32
77106;BME280;66057;54.718;18.426;2023-08-12T12:34:06;47072.59;;;-143.26;47.86
77106;BME280;66057;54.718;18.426;2023-08-12T12:36:36;47094.06;;;-143.26;48.34
77106;BME280;66057;54.718;18.426;2023-08-12T12:39:06;47064.78;;;-143.26;50.04